Time;durP1;ratioP1;P1;durP2;ratioP2;P2;SDS_P1;SDS_P2;PMS_P1;PMS_P2;Temp;Humidity;BMP_temperature;BMP_pressure;BME280_temperature;BME280_humidity;BME280_pressure;Samples;Min_cycle;Max_cycle;Signal;HPM_P1;HPM_P2
2024/01/10 00:03:37;;;;;;;141.90;71.80;;;;;;;-8.22;81.29;102096.09;177214;1260;46162;-82
2024/01/10 00:07:40;;;;;;;129.10;69.40;;;;;;;-8.18;80.95;102092.73;177587;1260;46004;-82
2024/01/10 00:11:43;;;;;;;157.60;73.40;;;;;;;-8.15;80.27;102092.13;178091;1260;59521;-83
2024/01/10 00:15:48;;;;;;;116.80;59.20;;;;;;;-8.17;80.06;102089.98;178866;1260;44301;-83
2024/01/10 00:19:51;;;;;;;110.80;63.10;;;;;;;-8.13;80.15;102087.85;177749;1260;46039;-82
2024/01/10 00:23:54;;;;;;;119.20;64.70;;;;;;;-8.12;79.81;102086.66;177584;1260;45982;-83
2024/01/10 00:27:58;;;;;;;136.60;76.20;;;;;;;-8.10;79.50;102090.85;177694;1260;45958;-82
2024/01/10 00:32:01;;;;;;;147.60;72.60;;;;;;;-8.14;79.06;102090.74;177717;1261;59066;-83
2024/01/10 00:36:06;;;;;;;170.60;80.40;;;;;;;-8.20;79.11;102081.31;177227;1259;45997;-82
2024/01/10 00:40:09;;;;;;;150.60;77.80;;;;;;;-8.32;79.37;102076.17;177484;1260;46012;-82
2024/01/10 00:44:13;;;;;;;129.50;67.80;;;;;;;-8.44;80.06;102076.42;177455;1260;46108;-82
2024/01/10 00:48:17;;;;;;;127.90;64.30;;;;;;;-8.52;80.44;102074.69;177448;1260;46105;-82
2024/01/10 00:52:20;;;;;;;170.90;77.00;;;;;;;-8.56;81.17;102073.40;177270;1263;57924;-82
2024/01/10 00:56:24;;;;;;;145.70;82.80;;;;;;;-8.60;81.83;102072.59;177587;1260;46071;-83
2024/01/10 01:00:28;;;;;;;159.20;81.50;;;;;;;-8.57;81.89;102069.92;177670;1261;46536;-81
2024/01/10 01:04:31;;;;;;;144.30;80.00;;;;;;;-8.55;81.82;102073.59;177978;1261;46234;-81
2024/01/10 01:08:34;;;;;;;166.30;82.00;;;;;;;-8.51;81.65;102069.22;177460;1260;46005;-81
2024/01/10 01:12:39;;;;;;;166.30;88.50;;;;;;;-8.48;81.52;102074.42;177783;1260;58011;-82
2024/01/10 01:16:42;;;;;;;171.10;94.30;;;;;;;-8.53;81.49;102080.17;177224;1259;46126;-83
2024/01/10 01:20:47;;;;;;;181.00;101.30;;;;;;;-8.55;81.51;102076.51;177400;1262;46065;-83
2024/01/10 01:24:50;;;;;;;187.40;95.10;;;;;;;-8.61;81.69;102077.05;177955;1259;45971;-82
2024/01/10 01:28:53;;;;;;;182.90;86.10;;;;;;;-8.72;81.96;102079.85;177386;1260;45899;-83
2024/01/10 01:32:57;;;;;;;162.70;79.50;;;;;;;-8.79;82.20;102081.75;178144;1260;59040;-83
2024/01/10 01:37:01;;;;;;;139.60;75.80;;;;;;;-8.89;82.30;102077.15;178596;1263;46123;-82
2024/01/10 01:41:05;;;;;;;139.40;70.20;;;;;;;-8.98;82.46;102077.44;178099;1261;46089;-83
2024/01/10 01:45:09;;;;;;;133.10;68.60;;;;;;;-9.03;82.69;102079.17;178323;1261;46192;-82
2024/01/10 01:49:12;;;;;;;124.30;68.20;;;;;;;-9.09;82.86;102067.83;178086;1260;44101;-83
2024/01/10 01:53:17;;;;;;;131.10;73.20;;;;;;;-9.10;82.93;102064.05;177787;1259;57614;-82
2024/01/10 01:57:20;;;;;;;161.60;84.00;;;;;;;-9.24;83.04;102059.86;177501;1260;46032;-81
2024/01/10 02:01:23;;;;;;;134.90;67.10;;;;;;;-9.39;83.32;102059.77;178871;1260;45947;-82
2024/01/10 02:05:27;;;;;;;130.70;64.90;;;;;;;-9.61;84.23;102061.36;178286;1259;46094;-82
2024/01/10 02:09:31;;;;;;;117.70;65.20;;;;;;;-9.69;85.11;102064.91;177782;1261;44685;-82
2024/01/10 02:13:35;;;;;;;116.00;66.10;;;;;;;-9.71;85.43;102059.38;178007;1260;59321;-83
2024/01/10 02:17:38;;;;;;;126.90;66.40;;;;;;;-9.72;85.72;102058.63;177898;1260;44721;-83
2024/01/10 02:21:42;;;;;;;118.00;61.70;;;;;;;-9.70;85.97;102071.06;177894;1260;45956;-82
2024/01/10 02:25:45;;;;;;;149.50;70.50;;;;;;;-9.66;85.90;102071.54;177627;1259;46037;-83
2024/01/10 02:29:49;;;;;;;138.80;68.20;;;;;;;-9.66;86.14;102070.48;177496;1260;45885;-82
2024/01/10 02:33:53;;;;;;;124.30;71.00;;;;;;;-9.56;86.15;102068.90;177661;1260;59122;-82
2024/01/10 02:37:56;;;;;;;145.50;75.30;;;;;;;-9.49;85.79;102056.08;178241;1260;45971;-83
2024/01/10 02:41:59;;;;;;;123.80;66.50;;;;;;;-9.45;85.38;102046.91;177789;1260;46196;-83
2024/01/10 02:46:03;;;;;;;129.60;70.20;;;;;;;-9.34;85.14;102041.02;177495;1260;46090;-81
2024/01/10 02:50:07;;;;;;;133.20;63.10;;;;;;;-9.27;84.60;102046.19;177677;1262;46103;-83
2024/01/10 02:54:10;;;;;;;125.00;65.00;;;;;;;-9.24;83.99;102038.71;177803;1263;58040;-83
2024/01/10 02:58:14;;;;;;;114.50;61.40;;;;;;;-9.21;83.65;102036.76;178114;1260;45982;-82
2024/01/10 03:02:17;;;;;;;116.00;68.90;;;;;;;-9.19;83.60;102038.36;177752;1262;45930;-83
2024/01/10 03:06:21;;;;;;;122.20;67.20;;;;;;;-9.23;83.52;102038.77;178204;1260;46095;-83
2024/01/10 03:10:25;;;;;;;115.00;66.90;;;;;;;-9.20;83.73;102035.40;177490;1260;46010;-82
2024/01/10 03:14:28;;;;;;;123.10;66.90;;;;;;;-9.22;83.54;102033.29;177890;1259;57370;-82
2024/01/10 03:18:31;;;;;;;146.20;68.20;;;;;;;-9.23;83.85;102027.23;178212;1261;45973;-83
2024/01/10 03:22:35;;;;;;;124.50;70.00;;;;;;;-9.25;84.19;102027.52;177170;1263;46097;-83
2024/01/10 03:26:38;;;;;;;134.90;68.40;;;;;;;-9.24;84.33;102025.30;177282;1262;45908;-82
2024/01/10 03:30:42;;;;;;;138.60;70.80;;;;;;;-9.16;84.37;102027.42;177720;1260;45973;-82
2024/01/10 03:34:46;;;;;;;148.20;69.20;;;;;;;-9.08;84.04;102024.05;177429;1260;59407;-82
2024/01/10 03:38:49;;;;;;;125.00;64.20;;;;;;;-9.01;83.67;102023.53;178155;1262;45965;-81
2024/01/10 03:42:52;;;;;;;140.20;72.90;;;;;;;-8.98;83.22;102029.45;178224;1263;46037;-81
2024/01/10 03:46:55;;;;;;;139.90;73.20;;;;;;;-8.98;83.14;102030.15;177660;1260;45972;-82
2024/01/10 03:50:59;;;;;;;125.60;73.80;;;;;;;-9.01;83.19;102021.48;178386;1260;46040;-83
2024/01/10 03:55:02;;;;;;;150.10;73.20;;;;;;;-8.99;83.29;102015.86;178229;1259;58704;-82
2024/01/10 03:59:06;;;;;;;141.20;68.30;;;;;;;-9.01;83.16;102014.25;178205;1264;46240;-81
2024/01/10 04:03:09;;;;;;;125.60;67.30;;;;;;;-9.00;83.45;102013.77;177670;1262;46071;-82
2024/01/10 04:07:13;;;;;;;143.60;70.90;;;;;;;-8.97;83.23;102014.35;178182;1259;45804;-82
2024/01/10 04:11:16;;;;;;;127.60;66.10;;;;;;;-8.93;83.21;102015.67;177207;1260;45955;-81
2024/01/10 04:15:19;;;;;;;143.00;71.30;;;;;;;-8.89;83.06;102018.35;177857;1260;60109;-82
2024/01/10 04:19:22;;;;;;;144.50;65.50;;;;;;;-8.88;82.76;102019.75;177233;1259;46098;-81
2024/01/10 04:23:26;;;;;;;124.20;69.80;;;;;;;-8.86;82.72;102017.55;177715;1262;46329;-81
2024/01/10 04:27:29;;;;;;;115.00;58.40;;;;;;;-8.96;82.70;102009.39;176781;1261;46065;-80
2024/01/10 04:31:33;;;;;;;123.80;64.90;;;;;;;-9.18;83.41;102002.44;177848;1262;45969;-81
2024/01/10 04:35:36;;;;;;;136.10;69.10;;;;;;;-9.22;83.62;102007.86;177931;1260;58342;-81
2024/01/10 04:39:42;;;;;;;120.40;61.80;;;;;;;-9.21;83.33;102006.84;177283;1261;46039;-81
2024/01/10 04:43:45;;;;;;;134.80;71.90;;;;;;;-9.19;83.26;101998.66;176488;1261;46085;-80
2024/01/10 04:47:49;;;;;;;127.60;68.70;;;;;;;-9.14;82.93;102009.42;176451;1261;46213;-81
2024/01/10 04:51:52;;;;;;;122.20;61.60;;;;;;;-9.07;82.91;102007.22;176432;1261;46014;-80
2024/01/10 04:55:56;;;;;;;136.10;70.40;;;;;;;-9.20;83.05;101999.66;176969;1261;59031;-80
2024/01/10 04:59:59;;;;;;;129.30;69.20;;;;;;;-9.20;83.06;102008.41;176333;1261;46277;-80
2024/01/10 05:04:03;;;;;;;127.30;69.80;;;;;;;-9.24;82.75;102016.73;176537;1262;46089;-81
2024/01/10 05:08:06;;;;;;;156.30;70.70;;;;;;;-9.25;82.76;102007.39;176600;1264;46086;-81
2024/01/10 05:12:09;;;;;;;121.80;66.20;;;;;;;-9.24;82.72;102008.81;177003;1260;211940;-81
2024/01/10 05:16:13;;;;;;;122.90;67.50;;;;;;;-9.21;82.38;102005.30;176652;1263;58941;-81
2024/01/10 05:20:16;;;;;;;133.20;72.90;;;;;;;-9.17;82.35;102002.66;177219;1260;47530;-81
2024/01/10 05:24:20;;;;;;;129.20;68.70;;;;;;;-9.17;82.13;102001.97;177150;1260;45982;-81
2024/01/10 05:28:23;;;;;;;153.30;79.30;;;;;;;-9.18;82.33;101999.20;177541;1260;45943;-81
2024/01/10 05:32:27;;;;;;;139.20;73.10;;;;;;;-9.07;82.30;102003.60;177902;1263;46126;-82
2024/01/10 05:36:30;;;;;;;155.00;80.20;;;;;;;-8.97;82.11;102008.85;177418;1260;59726;-81
2024/01/10 05:40:34;;;;;;;151.50;77.50;;;;;;;-8.93;81.25;102011.36;177906;1262;46170;-81
2024/01/10 05:44:39;;;;;;;140.90;75.20;;;;;;;-8.94;81.10;102010.85;177366;1262;45998;-82
2024/01/10 05:48:42;;;;;;;130.70;70.60;;;;;;;-8.92;81.04;102009.52;177980;1259;44482;-81
2024/01/10 05:52:46;;;;;;;132.10;70.20;;;;;;;-8.85;81.12;102009.85;177715;1261;45940;-82
2024/01/10 05:56:52;;;;;;;;;;;;;;;-8.75;80.82;102010.80;177706;1260;58486;-81
2024/01/10 06:00:55;;;;;;;146.70;66.70;;;;;;;-8.64;80.32;102020.20;177494;1259;45763;-82
2024/01/10 06:04:59;;;;;;;147.60;73.70;;;;;;;-8.63;79.51;102025.21;178223;1260;46081;-83
2024/01/10 06:09:05;;;;;;;160.60;75.60;;;;;;;-8.63;79.45;102018.69;178878;1261;46114;-82
2024/01/10 06:13:09;;;;;;;136.80;70.90;;;;;;;-8.76;79.05;102010.60;177809;1260;46150;-82
2024/01/10 06:17:12;;;;;;;131.00;68.60;;;;;;;-8.95;79.64;102011.30;177536;1260;58353;-81
2024/01/10 06:21:15;;;;;;;131.90;70.60;;;;;;;-9.08;80.23;102008.74;178047;1260;46097;-82
2024/01/10 06:25:19;;;;;;;127.00;68.40;;;;;;;-9.12;80.42;102001.23;176987;1262;46522;-82
2024/01/10 06:29:22;;;;;;;121.40;65.00;;;;;;;-9.18;80.70;101996.09;177002;1264;46071;-82
2024/01/10 06:33:25;;;;;;;131.60;66.20;;;;;;;-9.20;80.62;101998.95;177468;1263;46181;-82
2024/01/10 06:37:29;;;;;;;160.30;75.20;;;;;;;-9.20;81.00;102003.10;177327;1263;58517;-81
2024/01/10 06:41:34;;;;;;;125.20;66.10;;;;;;;-9.20;81.55;102002.40;177407;1262;45937;-82
2024/01/10 06:45:37;;;;;;;117.70;66.90;;;;;;;-9.25;81.68;101994.71;177446;1260;45943;-82
2024/01/10 06:49:41;;;;;;;128.80;68.00;;;;;;;-9.27;81.89;101998.06;177649;1262;45990;-82
2024/01/10 06:53:44;;;;;;;124.40;63.60;;;;;;;-9.24;81.92;101998.86;178016;1260;44896;-82
2024/01/10 06:57:48;;;;;;;150.90;76.80;;;;;;;-9.24;81.88;102002.63;177910;1261;59195;-82
2024/01/10 07:01:53;;;;;;;158.10;83.50;;;;;;;-9.22;81.59;102000.61;177399;1262;45969;-81
2024/01/10 07:05:57;;;;;;;149.60;74.40;;;;;;;-9.23;81.53;102000.23;177623;1260;46094;-82
2024/01/10 07:10:04;;;;;;;153.40;76.90;;;;;;;-9.28;81.53;102001.32;177448;1263;46105;-81
2024/01/10 07:14:07;;;;;;;156.70;77.90;;;;;;;-9.29;81.87;101997.33;177499;1260;46014;-82
2024/01/10 07:18:11;;;;;;;256.80;142.50;;;;;;;-9.31;82.10;101997.98;177851;1260;59747;-81
2024/01/10 07:22:15;;;;;;;130.70;62.00;;;;;;;-9.25;82.43;101994.88;177309;1259;46074;-82
2024/01/10 07:26:19;;;;;;;173.20;96.40;;;;;;;-9.33;82.83;101985.20;176867;1261;46060;-81
2024/01/10 07:30:23;;;;;;;144.10;88.50;;;;;;;-9.25;83.22;101979.90;177813;1260;45807;-82
2024/01/10 07:34:27;;;;;;;184.00;98.00;;;;;;;-9.24;83.70;101977.53;177652;1261;45980;-82
2024/01/10 07:38:30;;;;;;;159.10;75.50;;;;;;;-9.13;84.05;101980.58;177624;1262;58351;-82
2024/01/10 07:42:35;;;;;;;136.40;72.40;;;;;;;-9.21;84.35;101970.74;177302;1259;45981;-82
2024/01/10 07:46:38;;;;;;;116.50;58.60;;;;;;;-9.28;84.16;101971.39;178312;1259;46144;-82
2024/01/10 07:50:42;;;;;;;144.30;81.90;;;;;;;-9.53;85.45;101970.90;177393;1263;46114;-82
2024/01/10 07:54:45;;;;;;;147.00;73.10;;;;;;;-9.38;85.96;101971.51;178264;1259;45969;-82
2024/01/10 07:58:48;;;;;;;142.60;76.00;;;;;;;-9.32;85.36;101976.47;177175;1261;60119;-82
2024/01/10 08:02:52;;;;;;;133.60;64.90;;;;;;;-9.17;85.19;101971.73;178115;1260;46090;-82
2024/01/10 08:06:55;;;;;;;152.20;74.60;;;;;;;-9.08;84.80;101974.34;177636;1261;46017;-81
2024/01/10 08:10:59;;;;;;;126.90;69.90;;;;;;;-8.90;84.24;101976.88;177839;1261;45992;-82
2024/01/10 08:15:03;;;;;;;102.90;47.10;;;;;;;-8.59;84.03;101977.11;177713;1260;46065;-82
2024/01/10 08:19:07;;;;;;;87.60;42.10;;;;;;;-8.40;82.51;101977.92;177604;1262;59351;-82
2024/01/10 08:23:11;;;;;;;123.70;59.80;;;;;;;-8.49;82.40;101979.77;177699;1260;44152;-82
2024/01/10 08:27:14;;;;;;;132.90;69.10;;;;;;;-8.42;82.29;101978.73;178301;1260;44464;-83
2024/01/10 08:31:17;;;;;;;133.70;61.80;;;;;;;-8.21;82.03;101977.98;177676;1263;46061;-82
2024/01/10 08:35:21;;;;;;;134.00;70.20;;;;;;;-7.99;81.12;101974.52;178346;1263;45896;-81
2024/01/10 08:39:30;;;;;;;136.40;75.30;;;;;;;-7.75;79.79;101980.04;177998;1262;59019;-81
2024/01/10 08:43:33;;;;;;;134.70;71.40;;;;;;;-7.64;79.26;101979.24;178770;1260;45924;-81
2024/01/10 08:47:37;;;;;;;122.90;66.80;;;;;;;-7.65;79.11;101977.66;177899;1260;45977;-80
2024/01/10 08:51:42;;;;;;;124.90;64.80;;;;;;;-7.68;79.09;101979.33;178308;1260;45953;-81
2024/01/10 08:55:47;;;;;;;136.90;67.80;;;;;;;-7.58;79.70;101984.02;178115;1263;46017;-81
2024/01/10 08:59:50;;;;;;;148.40;69.90;;;;;;;-7.51;78.74;101981.73;177660;1260;59360;-81
2024/01/10 09:03:54;;;;;;;122.20;70.80;;;;;;;-7.33;79.41;101984.84;177906;1263;46088;-80
2024/01/10 09:07:57;;;;;;;139.20;72.50;;;;;;;-7.13;79.02;101980.05;177717;1259;46172;-81
2024/01/10 09:12:01;;;;;;;128.10;74.20;;;;;;;-6.98;78.62;101976.35;177600;1263;46285;-81
2024/01/10 09:16:05;;;;;;;143.70;72.00;;;;;;;-6.98;78.00;101971.71;177651;1261;46083;-81
2024/01/10 09:20:08;;;;;;;125.10;66.50;;;;;;;-6.98;78.35;101975.14;177359;1263;57919;-80
2024/01/10 09:24:14;;;;;;;110.70;65.10;;;;;;;-6.98;78.48;101967.73;177259;1259;47616;-81
2024/01/10 09:28:30;;;;;;;111.40;61.00;;;;;;;-6.89;78.78;101963.92;177895;1261;45971;-81
2024/01/10 09:32:34;;;;;;;113.80;69.20;;;;;;;-6.74;78.81;101957.27;177863;1261;45850;-82
2024/01/10 09:36:38;;;;;;;104.70;60.50;;;;;;;-6.54;78.34;101961.23;177713;1264;46402;-82
2024/01/10 09:40:42;;;;;;;152.30;77.10;;;;;;;-6.43;77.25;101962.95;176914;1260;58257;-82
2024/01/10 09:44:47;;;;;;;169.10;83.00;;;;;;;-6.32;77.51;101965.36;177308;1262;46091;-82
2024/01/10 09:48:50;;;;;;;122.90;69.90;;;;;;;-6.24;77.25;101954.60;177104;1259;46044;-82
2024/01/10 09:53:07;;;;;;;144.90;73.60;;;;;;;-6.20;77.51;101950.17;176759;1260;45971;-82
2024/01/10 09:57:10;;;;;;;123.90;64.70;;;;;;;-6.13;77.11;101945.60;176818;1260;45983;-82
2024/01/10 10:01:13;;;;;;;133.80;71.00;;;;;;;-6.04;77.39;101941.92;177199;1261;59903;-80
2024/01/10 10:05:17;;;;;;;121.70;72.10;;;;;;;-5.97;77.19;101941.98;177602;1262;46005;-81
2024/01/10 10:09:21;;;;;;;134.80;73.60;;;;;;;-5.82;77.13;101943.39;176967;1260;46095;-81
2024/01/10 10:13:29;;;;;;;169.50;83.80;;;;;;;-5.67;76.92;101939.60;177030;1260;45839;-82
2024/01/10 10:17:33;;;;;;;144.00;76.80;;;;;;;-5.62;76.31;101936.38;177200;1260;45970;-81
2024/01/10 10:21:36;;;;;;;136.40;70.60;;;;;;;-5.56;76.32;101938.86;176879;1260;58504;-82
2024/01/10 10:25:43;;;;;;;131.50;71.80;;;;;;;-5.48;76.53;101941.21;176697;1261;46762;-82
2024/01/10 10:29:47;;;;;;;128.00;64.90;;;;;;;-5.37;76.26;101939.26;176641;1259;46066;-81
2024/01/10 10:33:51;;;;;;;148.90;75.70;;;;;;;-5.19;76.06;101941.69;177143;1260;46124;-81
2024/01/10 10:37:55;;;;;;;154.30;83.00;;;;;;;-4.99;75.66;101943.60;177120;1261;46029;-82
2024/01/10 10:42:00;;;;;;;163.50;87.80;;;;;;;-4.90;75.52;101946.48;177041;1263;58229;-82
2024/01/10 10:46:04;;;;;;;157.90;87.20;;;;;;;-4.81;75.60;101937.36;177110;1260;45889;-82
2024/01/10 10:50:13;;;;;;;157.50;90.30;;;;;;;-4.77;75.27;101944.66;176877;1260;46108;-82
2024/01/10 10:54:18;;;;;;;281.30;155.40;;;;;;;-4.72;75.65;101954.59;177319;1263;46152;-81
2024/01/10 10:58:21;;;;;;;148.90;81.30;;;;;;;-4.73;75.50;101956.48;176767;1261;46206;-82
2024/01/10 11:02:27;;;;;;;127.80;69.80;;;;;;;-4.74;74.99;101957.16;177031;1260;58137;-81
2024/01/10 11:06:34;;;;;;;137.40;73.80;;;;;;;-4.67;75.31;101956.36;177155;1259;46088;-82
2024/01/10 11:10:41;;;;;;;150.50;77.20;;;;;;;-4.53;74.91;101955.77;177150;1263;46076;-82
2024/01/10 11:15:09;;;;;;;156.10;81.60;;;;;;;-4.39;74.32;101947.56;176901;1261;46087;-82
2024/01/10 11:19:44;;;;;;;170.80;95.60;;;;;;;-4.36;74.11;101938.76;177253;1259;46019;-82
2024/01/10 11:23:51;;;;;;;184.10;94.90;;;;;;;-4.35;74.41;101934.60;176588;1267;60165;-82
2024/01/10 11:27:54;;;;;;;188.70;105.70;;;;;;;-4.33;74.81;101929.06;176410;1267;46230;-80
2024/01/10 11:32:17;;;;;;;184.80;99.40;;;;;;;-4.34;75.77;101932.01;176232;1266;46213;-81
2024/01/10 11:36:24;;;;;;;191.40;103.60;;;;;;;-4.33;76.34;101929.07;175478;1267;46059;-81
2024/01/10 11:40:50;;;;;;;166.40;94.70;;;;;;;-4.36;75.96;101925.05;176148;1267;46154;-82
2024/01/10 11:44:53;;;;;;;133.30;78.80;;;;;;;-4.38;75.61;101921.23;176197;1267;58263;-81
2024/01/10 11:48:58;;;;;;;140.00;80.70;;;;;;;-4.39;75.34;101908.77;176334;1267;46530;-81
2024/01/10 11:53:03;;;;;;;136.30;74.40;;;;;;;-4.30;75.43;101906.41;175924;1269;46120;-81
2024/01/10 11:57:14;;;;;;;133.60;79.90;;;;;;;-4.13;75.48;101910.48;175799;1267;46044;-82
2024/01/10 12:01:18;;;;;;;144.20;79.20;;;;;;;-3.93;74.60;101905.90;177248;1263;45982;-81
2024/01/10 12:05:22;;;;;;;131.60;79.80;;;;;;;-3.75;74.18;101896.77;176992;1260;59535;-81
2024/01/10 12:09:25;;;;;;;142.90;76.60;;;;;;;-3.63;73.66;101899.08;176949;1260;45953;-80
2024/01/10 12:13:29;;;;;;;145.90;72.20;;;;;;;-3.61;73.14;101895.79;175919;1260;46140;-80
2024/01/10 12:17:32;;;;;;;181.00;90.40;;;;;;;-3.69;73.38;101894.38;176290;1261;46549;-81
2024/01/10 12:21:36;;;;;;;157.30;81.50;;;;;;;-3.66;73.36;101892.30;176894;1261;46053;-81
2024/01/10 12:25:39;;;;;;;127.70;76.10;;;;;;;-3.62;73.57;101881.40;177156;1259;57956;-82
2024/01/10 12:29:42;;;;;;;157.30;87.40;;;;;;;-3.58;73.75;101885.04;177241;1259;46091;-82
2024/01/10 12:33:47;;;;;;;175.10;89.40;;;;;;;-3.56;73.73;101886.42;176827;1260;46111;-82
2024/01/10 12:37:58;;;;;;;155.70;91.20;;;;;;;-3.50;74.26;101880.05;176830;1260;45892;-82
2024/01/10 12:42:01;;;;;;;172.90;90.20;;;;;;;-3.45;74.21;101875.88;177325;1261;46023;-81
2024/01/10 12:46:11;;;;;;;176.30;93.30;;;;;;;-3.43;73.78;101875.36;177173;1260;58176;-81
2024/01/10 12:50:15;;;;;;;160.00;88.80;;;;;;;-3.46;73.46;101871.55;177693;1259;46037;-81
2024/01/10 12:54:18;;;;;;;185.00;103.80;;;;;;;-3.49;74.07;101867.20;177076;1260;45898;-82
2024/01/10 12:58:22;;;;;;;183.10;93.90;;;;;;;-3.53;73.92;101864.08;176913;1260;46049;-82
2024/01/10 13:02:25;;;;;;;143.30;87.40;;;;;;;-3.56;73.93;101865.27;177387;1263;46025;-82
2024/01/10 13:06:28;;;;;;;160.10;88.10;;;;;;;-3.63;74.97;101865.42;177270;1261;58400;-81
2024/01/10 13:10:32;;;;;;;158.30;83.60;;;;;;;-3.55;75.57;101863.89;177222;1259;46104;-82
2024/01/10 13:14:35;;;;;;;148.40;85.00;;;;;;;-3.43;74.98;101861.66;176879;1263;46170;-80
2024/01/10 13:18:39;;;;;;;197.90;106.20;;;;;;;-3.33;74.30;101858.73;177492;1260;46164;-81
2024/01/10 13:22:43;;;;;;;166.50;96.30;;;;;;;-3.27;73.83;101862.91;178730;1260;46170;-81
2024/01/10 13:26:46;;;;;;;165.70;94.50;;;;;;;-3.20;73.46;101852.66;178351;1260;59794;-81
2024/01/10 13:30:50;;;;;;;157.50;84.30;;;;;;;-3.17;73.61;101850.41;177491;1261;46105;-81
2024/01/10 13:34:53;;;;;;;158.50;94.00;;;;;;;-3.18;74.23;101843.13;177681;1260;46194;-82
2024/01/10 13:38:57;;;;;;;161.80;92.30;;;;;;;-3.20;74.01;101847.64;177720;1259;46136;-81
2024/01/10 13:43:03;;;;;;;167.60;90.90;;;;;;;-3.20;73.68;101849.54;177893;1260;45948;-84
2024/01/10 13:47:06;;;;;;;182.70;91.30;;;;;;;-3.19;73.72;101851.98;177209;1260;59331;-81
2024/01/10 13:51:10;;;;;;;167.50;93.70;;;;;;;-3.15;73.68;101853.19;177548;1259;46225;-81
2024/01/10 13:55:13;;;;;;;170.50;88.00;;;;;;;-3.10;73.30;101843.14;177271;1259;46191;-81
2024/01/10 13:59:16;;;;;;;169.10;91.10;;;;;;;-3.10;73.40;101838.62;177465;1260;46017;-81
2024/01/10 14:03:19;;;;;;;161.50;90.70;;;;;;;-3.13;73.58;101835.15;177392;1260;46041;-81
2024/01/10 14:07:24;;;;;;;153.90;89.30;;;;;;;-3.18;74.20;101832.70;177645;1260;57926;-82
2024/01/10 14:11:27;;;;;;;148.30;88.60;;;;;;;-3.21;74.78;101837.05;177197;1259;46137;-81
2024/01/10 14:15:30;;;;;;;145.70;77.80;;;;;;;-3.24;75.11;101830.98;176896;1260;46069;-81
2024/01/10 14:19:34;;;;;;;158.90;83.40;;;;;;;-3.26;75.44;101832.88;176979;1260;45949;-81
2024/01/10 14:23:37;;;;;;;144.60;79.30;;;;;;;-3.26;75.36;101825.95;177225;1260;46105;-81
2024/01/10 14:27:40;;;;;;;146.60;74.60;;;;;;;-3.29;75.35;101828.20;177402;1260;59508;-82
2024/01/10 14:31:43;;;;;;;171.80;90.00;;;;;;;-3.33;75.43;101824.03;176989;1261;46437;-82
2024/01/10 14:35:52;;;;;;;161.70;93.50;;;;;;;-3.33;75.76;101827.51;177854;1259;46142;-82
2024/01/10 14:39:56;;;;;;;160.40;93.60;;;;;;;-3.32;75.42;101830.98;177962;1260;46034;-82
2024/01/10 14:44:00;;;;;;;155.60;87.90;;;;;;;-3.32;75.37;101836.36;177703;1260;46021;-82
2024/01/10 14:48:03;;;;;;;154.20;90.70;;;;;;;-3.34;75.66;101832.00;177401;1260;59140;-82
2024/01/10 14:52:07;;;;;;;170.50;98.70;;;;;;;-3.36;75.57;101839.12;177263;1260;46202;-81
2024/01/10 14:56:10;;;;;;;187.40;100.20;;;;;;;-3.39;75.30;101835.13;177189;1260;46146;-81
2024/01/10 15:00:14;;;;;;;172.40;98.80;;;;;;;-3.44;75.26;101837.90;177262;1260;45982;-80
2024/01/10 15:04:17;;;;;;;253.40;131.00;;;;;;;-3.51;75.27;101842.56;177566;1260;46049;-80
2024/01/10 15:08:20;;;;;;;375.50;186.80;;;;;;;-3.59;75.34;101848.96;177383;1260;59130;-82
2024/01/10 15:12:24;;;;;;;268.00;137.50;;;;;;;-3.68;75.40;101845.31;177700;1261;46102;-82
2024/01/10 15:16:27;;;;;;;236.80;123.50;;;;;;;-3.76;75.47;101840.95;177419;1260;46046;-83
2024/01/10 15:20:30;;;;;;;261.70;140.90;;;;;;;-3.84;75.66;101837.97;178378;1260;46158;-83
2024/01/10 15:24:33;;;;;;;315.60;155.00;;;;;;;-3.92;75.90;101837.79;178503;1260;43982;-82
2024/01/10 15:28:37;;;;;;;326.60;154.30;;;;;;;-3.98;76.20;101837.06;178089;1260;58534;-82
2024/01/10 15:32:41;;;;;;;270.00;146.20;;;;;;;-4.08;76.22;101841.37;177039;1261;46499;-82
2024/01/10 15:36:46;;;;;;;288.80;143.80;;;;;;;-4.18;76.22;101837.86;177457;1260;44476;-82
2024/01/10 15:40:49;;;;;;;260.40;141.90;;;;;;;-4.26;76.29;101842.14;177250;1264;46077;-82
2024/01/10 15:44:52;;;;;;;260.10;136.40;;;;;;;-4.36;76.77;101838.29;178403;1260;44484;-83
2024/01/10 15:48:56;;;;;;;300.60;162.70;;;;;;;-4.47;77.53;101831.13;177231;1264;58127;-82
2024/01/10 15:52:59;;;;;;;371.20;192.10;;;;;;;-4.59;77.90;101828.98;177560;1259;45968;-83
2024/01/10 15:57:03;;;;;;;488.50;269.10;;;;;;;-4.68;78.38;101830.32;177233;1263;46260;-82
2024/01/10 16:01:07;;;;;;;693.50;392.30;;;;;;;-4.71;78.56;101830.65;177439;1261;46133;-82
2024/01/10 16:05:10;;;;;;;723.80;422.50;;;;;;;-4.72;78.29;101832.55;177842;1260;44256;-81
2024/01/10 16:09:13;;;;;;;665.70;379.70;;;;;;;-4.75;78.18;101825.42;177475;1259;59333;-82
2024/01/10 16:13:17;;;;;;;560.10;313.60;;;;;;;-4.80;77.99;101819.16;177717;1258;46267;-81
2024/01/10 16:17:20;;;;;;;351.80;181.80;;;;;;;-4.91;77.82;101812.85;178107;1260;46026;-82
2024/01/10 16:21:24;;;;;;;210.80;120.70;;;;;;;-5.04;78.95;101815.02;177852;1259;46045;-82
2024/01/10 16:25:27;;;;;;;198.30;114.40;;;;;;;-5.13;79.23;101819.09;177550;1260;46107;-82
2024/01/10 16:29:30;;;;;;;188.70;103.00;;;;;;;-5.16;79.27;101817.52;177270;1262;57936;-82
2024/01/10 16:33:34;;;;;;;171.50;94.60;;;;;;;-5.12;79.55;101811.48;176874;1260;46196;-82
2024/01/10 16:37:37;;;;;;;202.00;104.60;;;;;;;-5.03;79.86;101811.21;176812;1261;46094;-81
2024/01/10 16:41:40;;;;;;;219.00;109.20;;;;;;;-4.94;79.35;101806.93;176985;1260;45988;-82
2024/01/10 16:45:43;;;;;;;215.20;111.90;;;;;;;-4.92;78.85;101801.77;176883;1260;46142;-81
2024/01/10 16:49:46;;;;;;;212.20;117.60;;;;;;;-5.08;78.66;101799.77;177289;1260;59391;-82
2024/01/10 16:53:50;;;;;;;218.50;116.50;;;;;;;-5.21;79.06;101805.54;177245;1261;46087;-82
2024/01/10 16:57:54;;;;;;;220.10;118.30;;;;;;;-5.31;79.51;101798.54;176178;1261;46132;-81
2024/01/10 17:01:57;;;;;;;229.90;127.10;;;;;;;-5.43;80.17;101802.40;177147;1261;46718;-81
2024/01/10 17:06:00;;;;;;;218.10;109.50;;;;;;;-5.49;80.80;101803.56;177067;1259;45956;-82
2024/01/10 17:10:05;;;;;;;238.60;126.70;;;;;;;-5.54;80.35;101801.62;176993;1260;57915;-82
2024/01/10 17:14:09;;;;;;;247.20;140.20;;;;;;;-5.50;81.36;101809.77;177095;1261;150789;-82
2024/01/10 17:18:12;;;;;;;340.10;174.40;;;;;;;-5.49;81.23;101811.36;177181;1260;46006;-82
2024/01/10 17:22:15;;;;;;;290.30;151.20;;;;;;;-5.42;81.44;101805.52;177018;1260;46429;-81
2024/01/10 17:26:19;;;;;;;295.70;150.90;;;;;;;-5.41;80.24;101806.23;176671;1260;46122;-83
2024/01/10 17:30:23;;;;;;;288.70;141.20;;;;;;;-5.44;80.19;101804.83;176955;1260;59506;-82
2024/01/10 17:34:27;;;;;;;241.20;133.00;;;;;;;-5.50;80.25;101803.03;176977;1260;46162;-82
2024/01/10 17:38:30;;;;;;;239.00;129.40;;;;;;;-5.62;80.27;101801.71;177391;1260;46261;-82
2024/01/10 17:42:33;;;;;;;238.80;133.20;;;;;;;-5.72;80.13;101802.14;176669;1260;45965;-82
2024/01/10 17:46:36;;;;;;;203.70;97.60;;;;;;;-5.81;80.05;101799.98;176766;1261;46414;-82
2024/01/10 17:50:39;;;;;;;225.50;119.90;;;;;;;-5.98;80.72;101796.00;176895;1258;58220;-82
2024/01/10 17:54:44;;;;;;;218.50;112.90;;;;;;;-6.03;81.72;101797.18;176957;1260;45905;-82
2024/01/10 17:58:47;;;;;;;364.90;171.50;;;;;;;-5.97;81.64;101792.02;176956;1262;46081;-81
2024/01/10 18:02:51;;;;;;;287.30;151.60;;;;;;;-5.85;82.09;101784.38;176782;1260;46061;-82